sensor_id;sensor_type;location;lat;lon;timestamp;pressure;altitude;pressure_sealevel;temperature;humidity
60069;BME280;45945;53.350;55.922;2022-08-01T00:00:28;99390.97;;;17.59;74.09
60069;BME280;45945;53.350;55.922;2022-08-01T00:01:29;99393.78;;;17.46;74.66
60069;BME280;45945;53.350;55.922;2022-08-01T00:02:30;99392.75;;;17.60;73.94
60069;BME280;45945;53.350;55.922;2022-08-01T00:03:31;99402.53;;;17.51;74.41
60069;BME280;45945;53.350;55.922;2022-08-01T00:04:32;99399.06;;;17.45;74.71
60069;BME280;45945;53.350;55.922;2022-08-01T00:05:33;99397.34;;;17.41;74.76
60069;BME280;45945;53.350;55.922;2022-08-01T00:06:34;99400.88;;;17.43;75.04
60069;BME280;45945;53.350;55.922;2022-08-01T00:07:35;99400.78;;;17.50;74.47
60069;BME280;45945;53.350;55.922;2022-08-01T00:08:35;99403.31;;;17.60;73.75
60069;BME280;45945;53.350;55.922;2022-08-01T00:09:36;99397.09;;;17.64;74.21
60069;BME280;45945;53.350;55.922;2022-08-01T00:10:37;99403.28;;;17.63;74.31
60069;BME280;45945;53.350;55.922;2022-08-01T00:11:38;99401.50;;;17.65;74.21
60069;BME280;45945;53.350;55.922;2022-08-01T00:12:39;99400.59;;;17.66;74.50
60069;BME280;45945;53.350;55.922;2022-08-01T00:13:40;99397.03;;;17.70;73.86
60069;BME280;45945;53.350;55.922;2022-08-01T00:14:41;99398.94;;;17.56;73.72
60069;BME280;45945;53.350;55.922;2022-08-01T00:15:41;99405.09;;;17.58;73.69
60069;BME280;45945;53.350;55.922;2022-08-01T00:16:42;99406.97;;;17.48;74.82
60069;BME280;45945;53.350;55.922;2022-08-01T00:17:43;99405.22;;;17.48;74.99
60069;BME280;45945;53.350;55.922;2022-08-01T00:18:44;99398.06;;;17.55;74.32
60069;BME280;45945;53.350;55.922;2022-08-01T00:19:45;99394.59;;;17.53;74.95
60069;BME280;45945;53.350;55.922;2022-08-01T00:20:46;99403.34;;;17.57;74.70
60069;BME280;45945;53.350;55.922;2022-08-01T00:21:46;99395.44;;;17.53;74.62
60069;BME280;45945;53.350;55.922;2022-08-01T00:22:48;99394.53;;;17.58;74.51
60069;BME280;45945;53.350;55.922;2022-08-01T00:23:48;99391.13;;;17.46;75.27
60069;BME280;45945;53.350;55.922;2022-08-01T00:24:49;99394.78;;;17.34;75.38
60069;BME280;45945;53.350;55.922;2022-08-01T00:25:50;99393.00;;;17.36;75.51
60069;BME280;45945;53.350;55.922;2022-08-01T00:26:51;99396.63;;;17.26;76.13
60069;BME280;45945;53.350;55.922;2022-08-01T00:27:52;99402.75;;;17.30;76.26
60069;BME280;45945;53.350;55.922;2022-08-01T00:28:53;99399.28;;;17.26;76.21
60069;BME280;45945;53.350;55.922;2022-08-01T00:29:54;99403.72;;;17.24;76.08
60069;BME280;45945;53.350;55.922;2022-08-01T00:30:55;99394.97;;;17.16;76.36
60069;BME280;45945;53.350;55.922;2022-08-01T00:31:55;99399.41;;;17.15;76.68
60069;BME280;45945;53.350;55.922;2022-08-01T00:32:56;99401.09;;;17.18;76.54
60069;BME280;45945;53.350;55.922;2022-08-01T00:33:57;99405.44;;;17.25;76.60
60069;BME280;45945;53.350;55.922;2022-08-01T00:34:58;99398.38;;;17.30;76.33
60069;BME280;45945;53.350;55.922;2022-08-01T00:35:58;99409.84;;;17.28;76.49
60069;BME280;45945;53.350;55.922;2022-08-01T00:36:59;99407.25;;;17.22;76.81
60069;BME280;45945;53.350;55.922;2022-08-01T00:38:00;99403.63;;;17.32;76.11
60069;BME280;45945;53.350;55.922;2022-08-01T00:39:01;99405.34;;;17.34;76.04
60069;BME280;45945;53.350;55.922;2022-08-01T00:40:02;99407.91;;;17.41;75.32
60069;BME280;45945;53.350;55.922;2022-08-01T00:41:04;99400.19;;;17.22;76.20
60069;BME280;45945;53.350;55.922;2022-08-01T00:42:09;99409.81;;;17.31;75.77
60069;BME280;45945;53.350;55.922;2022-08-01T00:43:10;99407.16;;;17.31;75.37
60069;BME280;45945;53.350;55.922;2022-08-01T00:44:11;99399.28;;;17.26;75.51
60069;BME280;45945;53.350;55.922;2022-08-01T00:45:12;99400.19;;;17.24;75.60
60069;BME280;45945;53.350;55.922;2022-08-01T00:46:12;99413.47;;;17.16;76.22
60069;BME280;45945;53.350;55.922;2022-08-01T00:47:13;99402.13;;;17.06;76.90
60069;BME280;45945;53.350;55.922;2022-08-01T00:48:14;99401.31;;;16.98;77.20
60069;BME280;45945;53.350;55.922;2022-08-01T00:49:15;99405.63;;;17.08;76.78
60069;BME280;45945;53.350;55.922;2022-08-01T00:50:16;99403.78;;;17.15;76.35
60069;BME280;45945;53.350;55.922;2022-08-01T00:51:17;99402.84;;;17.21;76.72
60069;BME280;45945;53.350;55.922;2022-08-01T00:52:18;99409.91;;;17.22;76.56
60069;BME280;45945;53.350;55.922;2022-08-01T00:53:19;99406.28;;;17.32;75.64
60069;BME280;45945;53.350;55.922;2022-08-01T00:54:19;99404.47;;;17.34;76.25
60069;BME280;45945;53.350;55.922;2022-08-01T00:55:20;99406.16;;;17.43;75.08
60069;BME280;45945;53.350;55.922;2022-08-01T00:56:21;99405.28;;;17.42;75.12
60069;BME280;45945;53.350;55.922;2022-08-01T00:57:24;99407.09;;;17.37;75.70
60069;BME280;45945;53.350;55.922;2022-08-01T00:58:25;99407.94;;;17.39;75.91
60069;BME280;45945;53.350;55.922;2022-08-01T00:59:29;99412.28;;;17.45;75.40
60069;BME280;45945;53.350;55.922;2022-08-01T01:00:30;99407.91;;;17.45;75.25
60069;BME280;45945;53.350;55.922;2022-08-01T01:01:31;99414.94;;;17.43;75.96
60069;BME280;45945;53.350;55.922;2022-08-01T01:02:31;99419.38;;;17.41;75.31
60069;BME280;45945;53.350;55.922;2022-08-01T01:03:32;99416.69;;;17.44;75.37
60069;BME280;45945;53.350;55.922;2022-08-01T01:04:33;99419.38;;;17.41;74.53
60069;BME280;45945;53.350;55.922;2022-08-01T01:05:37;99417.59;;;17.42;74.12
60069;BME280;45945;53.350;55.922;2022-08-01T01:08:55;99413.97;;;17.53;74.39
60069;BME280;45945;53.350;55.922;2022-08-01T01:10:03;99417.59;;;17.42;74.50
60069;BME280;45945;53.350;55.922;2022-08-01T01:11:16;99414.91;;;17.46;74.35
60069;BME280;45945;53.350;55.922;2022-08-01T01:14:41;99417.38;;;17.62;73.93
60069;BME280;45945;53.350;55.922;2022-08-01T01:15:49;99410.38;;;17.59;74.73
60069;BME280;45945;53.350;55.922;2022-08-01T01:16:50;99407.69;;;17.64;74.05
60069;BME280;45945;53.350;55.922;2022-08-01T01:17:53;99415.44;;;17.78;73.62
60069;BME280;45945;53.350;55.922;2022-08-01T01:18:57;99419.78;;;17.83;73.41
60069;BME280;45945;53.350;55.922;2022-08-01T01:19:59;99413.69;;;17.75;74.12
60069;BME280;45945;53.350;55.922;2022-08-01T01:22:20;99418.91;;;17.80;73.58
60069;BME280;45945;53.350;55.922;2022-08-01T01:24:30;99418.97;;;17.75;74.17
60069;BME280;45945;53.350;55.922;2022-08-01T01:26:40;99413.75;;;17.69;74.56
60069;BME280;45945;53.350;55.922;2022-08-01T01:30:12;99412.03;;;17.69;74.93
60069;BME280;45945;53.350;55.922;2022-08-01T01:31:13;99415.56;;;17.67;74.67
60069;BME280;45945;53.350;55.922;2022-08-01T01:33:27;99417.09;;;17.86;73.95
60069;BME280;45945;53.350;55.922;2022-08-01T01:34:33;99417.03;;;17.94;73.16
60069;BME280;45945;53.350;55.922;2022-08-01T01:35:36;99418.75;;;17.97;74.22
60069;BME280;45945;53.350;55.922;2022-08-01T01:36:39;99416.19;;;17.91;73.86
60069;BME280;45945;53.350;55.922;2022-08-01T01:37:40;99410.03;;;17.85;74.54
60069;BME280;45945;53.350;55.922;2022-08-01T01:38:42;99414.44;;;17.89;74.23
60069;BME280;45945;53.350;55.922;2022-08-01T01:39:44;99406.41;;;17.96;74.29
60069;BME280;45945;53.350;55.922;2022-08-01T01:40:47;99410.66;;;18.09;74.13
60069;BME280;45945;53.350;55.922;2022-08-01T01:41:49;99408.00;;;18.11;73.55
60069;BME280;45945;53.350;55.922;2022-08-01T01:42:51;99408.78;;;18.16;73.49
60069;BME280;45945;53.350;55.922;2022-08-01T01:43:52;99410.41;;;18.26;73.03
60069;BME280;45945;53.350;55.922;2022-08-01T01:44:53;99404.16;;;18.32;72.71
60069;BME280;45945;53.350;55.922;2022-08-01T01:45:54;99407.63;;;18.35;72.22
60069;BME280;45945;53.350;55.922;2022-08-01T01:46:56;99405.91;;;18.33;72.65
60069;BME280;45945;53.350;55.922;2022-08-01T01:47:58;99408.63;;;18.27;72.35
60069;BME280;45945;53.350;55.922;2022-08-01T01:48:59;99405.97;;;18.27;72.39
60069;BME280;45945;53.350;55.922;2022-08-01T01:50:01;99399.72;;;18.32;72.39
60069;BME280;45945;53.350;55.922;2022-08-01T01:51:04;99400.56;;;18.37;72.27
60069;BME280;45945;53.350;55.922;2022-08-01T01:52:05;99396.06;;;18.41;72.10
60069;BME280;45945;53.350;55.922;2022-08-01T01:53:07;99396.88;;;18.46;71.91
60069;BME280;45945;53.350;55.922;2022-08-01T01:54:10;99394.25;;;18.45;72.17
60069;BME280;45945;53.350;55.922;2022-08-01T01:55:11;99396.09;;;18.39;72.17
60069;BME280;45945;53.350;55.922;2022-08-01T01:56:14;99399.63;;;18.38;72.62
60069;BME280;45945;53.350;55.922;2022-08-01T01:57:16;99394.28;;;18.43;72.73
60069;BME280;45945;53.350;55.922;2022-08-01T01:58:19;99392.44;;;18.48;72.91
60069;BME280;45945;53.350;55.922;2022-08-01T01:59:21;99396.03;;;18.44;72.89
60069;BME280;45945;53.350;55.922;2022-08-01T02:00:24;99397.63;;;18.54;72.66
60069;BME280;45945;53.350;55.922;2022-08-01T02:01:26;99401.22;;;18.50;72.82
60069;BME280;45945;53.350;55.922;2022-08-01T02:02:28;99396.72;;;18.57;72.40
60069;BME280;45945;53.350;55.922;2022-08-01T02:03:30;99401.03;;;18.63;72.17
60069;BME280;45945;53.350;55.922;2022-08-01T02:04:32;99401.03;;;18.63;72.18
60069;BME280;45945;53.350;55.922;2022-08-01T02:05:36;99400.97;;;18.66;71.98
60069;BME280;45945;53.350;55.922;2022-08-01T02:06:39;99403.66;;;18.63;72.40
60069;BME280;45945;53.350;55.922;2022-08-01T02:07:40;99398.44;;;18.59;72.45
60069;BME280;45945;53.350;55.922;2022-08-01T02:08:43;99396.78;;;18.52;73.06
60069;BME280;45945;53.350;55.922;2022-08-01T02:09:47;99403.78;;;18.56;72.98
60069;BME280;45945;53.350;55.922;2022-08-01T02:10:50;99402.03;;;18.57;72.97
60069;BME280;45945;53.350;55.922;2022-08-01T02:12:09;99401.19;;;18.52;73.11
60069;BME280;45945;53.350;55.922;2022-08-01T02:13:12;99402.00;;;18.55;73.11
60069;BME280;45945;53.350;55.922;2022-08-01T02:14:13;99402.03;;;18.54;73.27
60069;BME280;45945;53.350;55.922;2022-08-01T02:15:14;99401.03;;;18.63;73.10
60069;BME280;45945;53.350;55.922;2022-08-01T02:16:16;99408.03;;;18.67;73.08
60069;BME280;45945;53.350;55.922;2022-08-01T02:17:17;99411.38;;;18.80;72.74
60069;BME280;45945;53.350;55.922;2022-08-01T02:18:19;99407.72;;;18.87;72.62
60069;BME280;45945;53.350;55.922;2022-08-01T02:19:20;99408.63;;;18.87;72.65
60069;BME280;45945;53.350;55.922;2022-08-01T02:20:21;99405.03;;;18.88;72.72
60069;BME280;45945;53.350;55.922;2022-08-01T02:21:27;99410.28;;;18.91;72.52
60069;BME280;45945;53.350;55.922;2022-08-01T02:22:40;99404.97;;;18.93;72.65
60069;BME280;45945;53.350;55.922;2022-08-01T02:23:42;99413.81;;;18.93;72.85
60069;BME280;45945;53.350;55.922;2022-08-01T02:25:52;99409.13;;;19.08;72.85
60069;BME280;45945;53.350;55.922;2022-08-01T02:26:53;99416.81;;;19.22;72.34
60069;BME280;45945;53.350;55.922;2022-08-01T02:28:03;99410.63;;;19.23;72.79
60069;BME280;45945;53.350;55.922;2022-08-01T02:29:06;99416.53;;;19.39;72.00
60069;BME280;45945;53.350;55.922;2022-08-01T02:30:10;99414.59;;;19.47;72.20
60069;BME280;45945;53.350;55.922;2022-08-01T02:31:13;99409.19;;;19.52;71.87
60069;BME280;45945;53.350;55.922;2022-08-01T02:32:19;99412.53;;;19.61;71.81
60069;BME280;45945;53.350;55.922;2022-08-01T02:33:21;99412.41;;;19.68;71.26
60069;BME280;45945;53.350;55.922;2022-08-01T02:34:24;99418.25;;;19.85;71.47
60069;BME280;45945;53.350;55.922;2022-08-01T02:35:29;99416.63;;;19.79;72.11
60069;BME280;45945;53.350;55.922;2022-08-01T02:36:32;99419.25;;;19.81;72.09
60069;BME280;45945;53.350;55.922;2022-08-01T02:37:34;99410.06;;;19.97;71.33
60069;BME280;45945;53.350;55.922;2022-08-01T02:38:37;99414.63;;;19.91;71.58
60069;BME280;45945;53.350;55.922;2022-08-01T02:39:40;99413.72;;;19.92;71.01
60069;BME280;45945;53.350;55.922;2022-08-01T02:40:43;99413.66;;;19.95;70.97
60069;BME280;45945;53.350;55.922;2022-08-01T02:41:47;99410.03;;;19.99;71.36
60069;BME280;45945;53.350;55.922;2022-08-01T02:42:49;99415.00;;;20.14;70.64
60069;BME280;45945;53.350;55.922;2022-08-01T02:43:51;99406.75;;;20.27;70.19
60069;BME280;45945;53.350;55.922;2022-08-01T02:44:52;99413.66;;;20.35;70.41
60069;BME280;45945;53.350;55.922;2022-08-01T02:45:55;99414.38;;;20.42;69.47
60069;BME280;45945;53.350;55.922;2022-08-01T02:47:00;99415.97;;;20.49;69.47
60069;BME280;45945;53.350;55.922;2022-08-01T02:48:06;99411.16;;;20.67;69.10
60069;BME280;45945;53.350;55.922;2022-08-01T02:49:09;99412.03;;;20.67;68.50
60069;BME280;45945;53.350;55.922;2022-08-01T02:50:10;99414.72;;;20.66;68.68
60069;BME280;45945;53.350;55.922;2022-08-01T02:51:13;99419.81;;;20.75;68.43
60069;BME280;45945;53.350;55.922;2022-08-01T02:52:16;99419.56;;;20.84;67.55
60069;BME280;45945;53.350;55.922;2022-08-01T02:53:18;99417.81;;;20.83;67.62
60069;BME280;45945;53.350;55.922;2022-08-01T02:54:19;99414.06;;;20.92;67.57
60069;BME280;45945;53.350;55.922;2022-08-01T02:55:21;99409.13;;;21.13;66.37
60069;BME280;45945;53.350;55.922;2022-08-01T02:56:24;99416.19;;;21.14;65.98
60069;BME280;45945;53.350;55.922;2022-08-01T02:57:34;99413.44;;;21.17;66.30
60069;BME280;45945;53.350;55.922;2022-08-01T02:58:38;99418.25;;;21.35;65.78
60069;BME280;45945;53.350;55.922;2022-08-01T02:59:40;99416.91;;;21.53;65.42
60069;BME280;45945;53.350;55.922;2022-08-01T03:00:43;99421.44;;;21.50;65.75
60069;BME280;45945;53.350;55.922;2022-08-01T03:01:45;99417.66;;;21.58;65.31
60069;BME280;45945;53.350;55.922;2022-08-01T03:02:46;99409.03;;;21.49;65.31
60069;BME280;45945;53.350;55.922;2022-08-01T03:03:48;99420.59;;;21.48;65.34
60069;BME280;45945;53.350;55.922;2022-08-01T03:04:49;99416.78;;;21.58;64.47
60069;BME280;45945;53.350;55.922;2022-08-01T03:05:51;99415.97;;;21.56;64.26
60069;BME280;45945;53.350;55.922;2022-08-01T03:06:53;99413.59;;;21.43;64.09
60069;BME280;45945;53.350;55.922;2022-08-01T03:07:55;99417.22;;;21.74;64.29
60069;BME280;45945;53.350;55.922;2022-08-01T03:08:56;99416.78;;;21.58;64.23
60069;BME280;45945;53.350;55.922;2022-08-01T03:09:57;99415.94;;;21.57;64.37
60069;BME280;45945;53.350;55.922;2022-08-01T03:10:59;99417.50;;;21.30;64.70
60069;BME280;45945;53.350;55.922;2022-08-01T03:12:00;99414.63;;;21.39;64.72
60069;BME280;45945;53.350;55.922;2022-08-01T03:13:03;99421.06;;;21.64;64.93
60069;BME280;45945;53.350;55.922;2022-08-01T03:14:05;99413.22;;;21.59;64.13
60069;BME280;45945;53.350;55.922;2022-08-01T03:15:08;99420.19;;;21.63;64.55
60069;BME280;45945;53.350;55.922;2022-08-01T03:16:09;99418.28;;;21.68;63.87
60069;BME280;45945;53.350;55.922;2022-08-01T03:17:12;99412.59;;;21.81;64.12
60069;BME280;45945;53.350;55.922;2022-08-01T03:18:13;99416.59;;;22.25;63.10
60069;BME280;45945;53.350;55.922;2022-08-01T03:19:15;99411.44;;;22.49;61.74
60069;BME280;45945;53.350;55.922;2022-08-01T03:20:18;99416.81;;;22.47;62.01
60069;BME280;45945;53.350;55.922;2022-08-01T03:21:21;99409.41;;;22.57;61.92
60069;BME280;45945;53.350;55.922;2022-08-01T03:22:24;99412.03;;;22.59;60.84
60069;BME280;45945;53.350;55.922;2022-08-01T03:23:25;99413.41;;;22.71;61.43
60069;BME280;45945;53.350;55.922;2022-08-01T03:24:27;99408.41;;;22.60;61.17
60069;BME280;45945;53.350;55.922;2022-08-01T03:25:28;99412.59;;;22.69;61.14
60069;BME280;45945;53.350;55.922;2022-08-01T03:26:30;99418.44;;;22.80;60.43
60069;BME280;45945;53.350;55.922;2022-08-01T03:27:32;99408.56;;;22.55;61.44
60069;BME280;45945;53.350;55.922;2022-08-01T03:28:33;99408.75;;;22.77;60.94
60069;BME280;45945;53.350;55.922;2022-08-01T03:29:35;99416.44;;;23.13;60.51
60069;BME280;45945;53.350;55.922;2022-08-01T03:30:36;99415.50;;;23.16;61.02
60069;BME280;45945;53.350;55.922;2022-08-01T03:31:38;99411.31;;;23.58;59.48
60069;BME280;45945;53.350;55.922;2022-08-01T03:32:40;99416.69;;;23.81;58.37
60069;BME280;45945;53.350;55.922;2022-08-01T03:33:40;99415.91;;;23.78;58.23
60069;BME280;45945;53.350;55.922;2022-08-01T03:34:41;99418.06;;;23.93;58.11
60069;BME280;45945;53.350;55.922;2022-08-01T03:35:45;99418.31;;;23.87;57.90
60069;BME280;45945;53.350;55.922;2022-08-01T03:36:51;99425.41;;;23.86;58.66
60069;BME280;45945;53.350;55.922;2022-08-01T03:37:53;99420.31;;;24.04;57.92
60069;BME280;45945;53.350;55.922;2022-08-01T03:38:56;99418.16;;;24.14;58.45
60069;BME280;45945;53.350;55.922;2022-08-01T03:39:58;99415.91;;;24.03;57.47
60069;BME280;45945;53.350;55.922;2022-08-01T03:41:02;99410.66;;;24.23;56.81
60069;BME280;45945;53.350;55.922;2022-08-01T03:42:10;99408.00;;;24.23;56.92
60069;BME280;45945;53.350;55.922;2022-08-01T03:43:16;99418.00;;;24.40;56.31
60069;BME280;45945;53.350;55.922;2022-08-01T03:44:20;99409.44;;;24.32;56.50
60069;BME280;45945;53.350;55.922;2022-08-01T03:45:24;99415.81;;;24.50;56.86
60069;BME280;45945;53.350;55.922;2022-08-01T03:46:27;99408.38;;;24.36;56.93
60069;BME280;45945;53.350;55.922;2022-08-01T03:47:33;99410.81;;;24.65;55.80
60069;BME280;45945;53.350;55.922;2022-08-01T03:48:37;99408.22;;;24.85;55.12
60069;BME280;45945;53.350;55.922;2022-08-01T03:49:41;99405.66;;;25.03;55.77
60069;BME280;45945;53.350;55.922;2022-08-01T03:50:42;99403.94;;;25.02;54.61
60069;BME280;45945;53.350;55.922;2022-08-01T03:51:44;99398.59;;;25.02;54.08
60069;BME280;45945;53.350;55.922;2022-08-01T03:52:48;99397.78;;;24.79;56.20
60069;BME280;45945;53.350;55.922;2022-08-01T03:53:50;99401.28;;;25.02;55.46
60069;BME280;45945;53.350;55.922;2022-08-01T03:54:52;99397.13;;;25.15;54.95
60069;BME280;45945;53.350;55.922;2022-08-01T03:55:53;99396.59;;;25.27;53.62
60069;BME280;45945;53.350;55.922;2022-08-01T03:56:56;99404.25;;;25.37;53.16
60069;BME280;45945;53.350;55.922;2022-08-01T03:57:57;99401.41;;;25.60;52.67
60069;BME280;45945;53.350;55.922;2022-08-01T03:58:59;99403.31;;;25.77;52.55
60069;BME280;45945;53.350;55.922;2022-08-01T04:00:01;99406.56;;;25.84;52.97
60069;BME280;45945;53.350;55.922;2022-08-01T04:01:13;99402.81;;;25.88;52.50
60069;BME280;45945;53.350;55.922;2022-08-01T04:02:13;99408.50;;;26.01;53.88
60069;BME280;45945;53.350;55.922;2022-08-01T04:03:15;99397.88;;;26.18;51.38
60069;BME280;45945;53.350;55.922;2022-08-01T04:04:16;99403.31;;;26.17;51.85
60069;BME280;45945;53.350;55.922;2022-08-01T04:05:17;99407.03;;;25.94;52.72
60069;BME280;45945;53.350;55.922;2022-08-01T04:06:18;99404.88;;;26.02;54.34
60069;BME280;45945;53.350;55.922;2022-08-01T04:08:23;99402.78;;;26.09;52.65
60069;BME280;45945;53.350;55.922;2022-08-01T04:09:23;99399.91;;;26.13;52.05
60069;BME280;45945;53.350;55.922;2022-08-01T04:10:25;99393.97;;;26.62;51.23
60069;BME280;45945;53.350;55.922;2022-08-01T04:11:27;99400.81;;;26.69;50.74
60069;BME280;45945;53.350;55.922;2022-08-01T04:12:28;99398.66;;;26.76;51.44
60069;BME280;45945;53.350;55.922;2022-08-01T04:13:30;99394.09;;;26.23;51.83
60069;BME280;45945;53.350;55.922;2022-08-01T04:14:31;99395.91;;;26.22;51.50
60069;BME280;45945;53.350;55.922;2022-08-01T04:15:32;99393.44;;;26.37;51.53
60069;BME280;45945;53.350;55.922;2022-08-01T04:16:32;99395.78;;;26.62;50.65
60069;BME280;45945;53.350;55.922;2022-08-01T04:17:34;99397.34;;;27.20;49.52
60069;BME280;45945;53.350;55.922;2022-08-01T04:18:35;99393.00;;;27.17;50.10
60069;BME280;45945;53.350;55.922;2022-08-01T04:19:36;99394.63;;;27.55;48.50
60069;BME280;45945;53.350;55.922;2022-08-01T04:20:36;99391.13;;;27.70;48.32
60069;BME280;45945;53.350;55.922;2022-08-01T04:21:40;99389.31;;;27.71;47.85
60069;BME280;45945;53.350;55.922;2022-08-01T04:22:41;99396.50;;;27.70;47.33
60069;BME280;45945;53.350;55.922;2022-08-01T04:23:42;99397.97;;;27.60;48.48
60069;BME280;45945;53.350;55.922;2022-08-01T04:24:44;99398.94;;;27.75;48.22
60069;BME280;45945;53.350;55.922;2022-08-01T04:25:50;99394.84;;;28.01;47.02
60069;BME280;45945;53.350;55.922;2022-08-01T04:26:51;99389.66;;;28.14;47.24
60069;BME280;45945;53.350;55.922;2022-08-01T04:27:52;99395.97;;;27.97;48.12
60069;BME280;45945;53.350;55.922;2022-08-01T04:28:53;99394.69;;;28.04;47.72
60069;BME280;45945;53.350;55.922;2022-08-01T04:29:56;99392.00;;;27.71;47.46
60069;BME280;45945;53.350;55.922;2022-08-01T04:30:57;99389.22;;;28.06;47.11
60069;BME280;45945;53.350;55.922;2022-08-01T04:31:59;99395.50;;;27.89;47.39
60069;BME280;45945;53.350;55.922;2022-08-01T04:33:02;99388.16;;;28.56;45.62
60069;BME280;45945;53.350;55.922;2022-08-01T04:34:05;99392.06;;;28.67;44.53
60069;BME280;45945;53.350;55.922;2022-08-01T04:35:07;99392.44;;;28.44;46.48
60069;BME280;45945;53.350;55.922;2022-08-01T04:36:10;99388.66;;;28.79;45.24
60069;BME280;45945;53.350;55.922;2022-08-01T04:37:11;99389.13;;;28.71;46.20
60069;BME280;45945;53.350;55.922;2022-08-01T04:38:17;99392.47;;;28.91;45.29
60069;BME280;45945;53.350;55.922;2022-08-01T04:39:19;99387.44;;;28.85;45.08
60069;BME280;45945;53.350;55.922;2022-08-01T04:40:21;99384.00;;;28.97;45.77
60069;BME280;45945;53.350;55.922;2022-08-01T04:41:26;99385.47;;;28.88;46.16
60069;BME280;45945;53.350;55.922;2022-08-01T04:42:28;99385.44;;;29.19;45.00
60069;BME280;45945;53.350;55.922;2022-08-01T04:43:29;99387.63;;;29.12;44.76
60069;BME280;45945;53.350;55.922;2022-08-01T04:44:29;99391.69;;;28.89;44.67
60069;BME280;45945;53.350;55.922;2022-08-01T04:45:33;99385.34;;;29.20;45.43
60069;BME280;45945;53.350;55.922;2022-08-01T04:46:34;99388.56;;;28.80;45.88
60069;BME280;45945;53.350;55.922;2022-08-01T04:47:37;99382.97;;;29.30;44.76
60069;BME280;45945;53.350;55.922;2022-08-01T04:48:40;99385.34;;;29.20;43.91
60069;BME280;45945;53.350;55.922;2022-08-01T04:49:41;99384.81;;;28.99;44.49
60069;BME280;45945;53.350;55.922;2022-08-01T04:50:42;99387.97;;;29.06;44.69
60069;BME280;45945;53.350;55.922;2022-08-01T04:51:49;99389.25;;;29.14;44.68
60069;BME280;45945;53.350;55.922;2022-08-01T04:52:51;99394.72;;;29.43;44.18
60069;BME280;45945;53.350;55.922;2022-08-01T04:53:52;99389.50;;;29.26;44.72
60069;BME280;45945;53.350;55.922;2022-08-01T04:54:53;99392.22;;;29.55;43.92
60069;BME280;45945;53.350;55.922;2022-08-01T04:55:53;99392.81;;;29.74;44.23
60069;BME280;45945;53.350;55.922;2022-08-01T04:56:54;99388.09;;;29.92;44.52
60069;BME280;45945;53.350;55.922;2022-08-01T04:58:00;99387.81;;;30.11;43.91
60069;BME280;45945;53.350;55.922;2022-08-01T04:59:01;99391.09;;;30.02;43.98
60069;BME280;45945;53.350;55.922;2022-08-01T05:00:20;99379.16;;;30.06;43.92
60069;BME280;45945;53.350;55.922;2022-08-01T05:01:21;99382.41;;;30.26;44.20
60069;BME280;45945;53.350;55.922;2022-08-01T05:02:22;99381.81;;;30.20;44.42
60069;BME280;45945;53.350;55.922;2022-08-01T05:03:22;99385.50;;;29.76;44.62
60069;BME280;45945;53.350;55.922;2022-08-01T05:04:23;99377.53;;;29.75;44.74
60069;BME280;45945;53.350;55.922;2022-08-01T05:05:24;99383.38;;;30.10;43.62
60069;BME280;45945;53.350;55.922;2022-08-01T05:06:26;99378.16;;;30.21;41.17
60069;BME280;45945;53.350;55.922;2022-08-01T05:07:27;99381.81;;;30.20;42.95
60069;BME280;45945;53.350;55.922;2022-08-01T05:08:27;99378.63;;;30.43;42.30
60069;BME280;45945;53.350;55.922;2022-08-01T05:09:28;99389.41;;;30.43;42.53
60069;BME280;45945;53.350;55.922;2022-08-01T05:10:29;99382.00;;;30.32;43.45
60069;BME280;45945;53.350;55.922;2022-08-01T05:11:31;99381.00;;;30.47;42.25
60069;BME280;45945;53.350;55.922;2022-08-01T05:12:31;99384.53;;;30.62;42.86
60069;BME280;45945;53.350;55.922;2022-08-01T05:13:32;99383.06;;;30.71;42.02
60069;BME280;45945;53.350;55.922;2022-08-01T05:14:33;99385.75;;;30.71;42.06
60069;BME280;45945;53.350;55.922;2022-08-01T05:15:34;99388.50;;;30.69;42.07
60069;BME280;45945;53.350;55.922;2022-08-01T05:16:35;99392.44;;;30.09;42.70
60069;BME280;45945;53.350;55.922;2022-08-01T05:17:36;99389.56;;;30.39;42.40
60069;BME280;45945;53.350;55.922;2022-08-01T05:18:40;99386.91;;;30.25;42.40
60069;BME280;45945;53.350;55.922;2022-08-01T05:19:41;99386.44;;;30.60;42.28
60069;BME280;45945;53.350;55.922;2022-08-01T05:20:43;99384.06;;;30.55;42.29
60069;BME280;45945;53.350;55.922;2022-08-01T05:21:43;99389.28;;;30.71;41.91
60069;BME280;45945;53.350;55.922;2022-08-01T05:22:44;99387.78;;;30.40;41.74
60069;BME280;45945;53.350;55.922;2022-08-01T05:23:45;99389.94;;;29.92;42.75
60069;BME280;45945;53.350;55.922;2022-08-01T05:24:46;99393.09;;;30.27;42.17
60069;BME280;45945;53.350;55.922;2022-08-01T05:25:47;99386.19;;;30.50;41.17
60069;BME280;45945;53.350;55.922;2022-08-01T05:26:49;99385.78;;;29.57;42.81
60069;BME280;45945;53.350;55.922;2022-08-01T05:27:50;99386.06;;;29.38;42.81
60069;BME280;45945;53.350;55.922;2022-08-01T05:28:51;99390.97;;;29.60;43.39
60069;BME280;45945;53.350;55.922;2022-08-01T05:29:52;99394.50;;;29.91;42.72
60069;BME280;45945;53.350;55.922;2022-08-01T05:30:53;99387.06;;;29.80;43.63
60069;BME280;45945;53.350;55.922;2022-08-01T05:31:55;99389.78;;;30.36;42.48
60069;BME280;45945;53.350;55.922;2022-08-01T05:32:56;99392.66;;;30.48;42.35
60069;BME280;45945;53.350;55.922;2022-08-01T05:33:57;99387.72;;;29.98;41.45
60069;BME280;45945;53.350;55.922;2022-08-01T05:34:58;99389.66;;;30.11;41.68
60069;BME280;45945;53.350;55.922;2022-08-01T05:36:00;99389.69;;;30.23;40.62
60069;BME280;45945;53.350;55.922;2022-08-01T05:37:01;99385.91;;;29.70;40.92
60069;BME280;45945;53.350;55.922;2022-08-01T05:38:01;99384.59;;;30.19;42.02
60069;BME280;45945;53.350;55.922;2022-08-01T05:39:02;99384.72;;;30.17;41.16